createdAt,value
2019-04-07T00:00:01.360Z,95.41
2019-04-07T00:10:01.993Z,96.08
2019-04-07T00:15:01.312Z,96.08
2019-04-07T00:20:01.160Z,96.24
2019-04-07T00:30:02.200Z,96.64
2019-04-07T00:45:02.109Z,96.89
2019-04-07T01:00:02.832Z,97.29
2019-04-07T01:15:01.209Z,97.5
2019-04-07T01:25:01.265Z,98.05
2019-04-07T01:30:02.097Z,97.94
2019-04-07T01:40:03.203Z,98.36
2019-04-07T01:45:01.848Z,98.36
2019-04-07T01:50:01.207Z,97.65
2019-04-07T02:00:03.405Z,97.87
2019-04-07T02:05:01.281Z,97.87
2019-04-07T02:15:01.301Z,97.63
2019-04-07T02:30:01.256Z,98.63
2019-04-07T02:45:01.820Z,98.0
2019-04-07T02:50:03.540Z,98.49
2019-04-07T02:55:02.741Z,98.49
2019-04-07T03:00:02.343Z,98.62
2019-04-07T03:05:02.553Z,98.62
2019-04-07T03:15:01.347Z,98.94
2019-04-07T03:30:04.121Z,99.0
2019-04-07T03:35:06.819Z,99.0
2019-04-07T03:45:01.524Z,99.0
2019-04-07T04:00:02.774Z,99.0
2019-04-07T04:15:03.970Z,99.0
2019-04-07T04:20:01.368Z,99.0
2019-04-07T04:30:01.526Z,99.0
2019-04-07T04:35:03.047Z,99.0
2019-04-07T04:45:04.412Z,99.0
2019-04-07T05:00:02.595Z,99.0
2019-04-07T05:10:01.925Z,99.0
2019-04-07T05:15:02.186Z,99.0
2019-04-07T05:30:02.726Z,99.0
2019-04-07T05:40:05.703Z,99.0
2019-04-07T05:45:01.563Z,99.0
2019-04-07T05:50:06.424Z,99.0
2019-04-07T05:55:02.951Z,99.0
2019-04-07T06:00:02.732Z,99.0
2019-04-07T06:05:01.771Z,99.0
2019-04-07T06:10:03.391Z,99.0
2019-04-07T06:15:02.130Z,99.0
2019-04-07T06:20:03.774Z,99.0
2019-04-07T06:25:07.283Z,99.0
2019-04-07T06:30:02.576Z,99.0
2019-04-07T06:35:03.038Z,99.0
2019-04-07T06:40:01.682Z,99.0
2019-04-07T06:45:02.121Z,99.0
2019-04-07T06:50:06.027Z,98.13
2019-04-07T06:55:01.379Z,98.13
2019-04-07T07:00:02.691Z,97.02
2019-04-07T07:05:01.481Z,97.02
2019-04-07T07:10:03.212Z,95.68
2019-04-07T07:15:04.943Z,95.68
2019-04-07T07:20:06.766Z,94.5
2019-04-07T07:25:01.674Z,94.5
2019-04-07T07:30:02.819Z,92.89
2019-04-07T07:35:01.352Z,92.89
2019-04-07T07:40:03.340Z,91.9
2019-04-07T07:45:03.631Z,91.9
2019-04-07T07:50:09.126Z,89.95
2019-04-07T07:55:03.994Z,89.95
2019-04-07T08:00:08.321Z,89.08
2019-04-07T08:05:03.314Z,89.08
2019-04-07T08:10:01.934Z,88.15
2019-04-07T08:15:03.199Z,88.15
2019-04-07T08:20:02.364Z,85.82
2019-04-07T08:25:06.513Z,85.82
2019-04-07T08:30:04.892Z,84.97
2019-04-07T08:35:08.138Z,84.97
2019-04-07T08:40:07.884Z,83.63
2019-04-07T08:45:03.673Z,83.63
2019-04-07T08:50:03.026Z,83.0
2019-04-07T08:55:03.159Z,83.0
2019-04-07T09:00:01.641Z,81.19
2019-04-07T09:05:02.842Z,81.19
2019-04-07T09:10:01.356Z,79.54
2019-04-07T09:15:13.251Z,79.54
2019-04-07T09:20:11.001Z,78.92
2019-04-07T09:25:09.843Z,78.92
2019-04-07T09:30:05.479Z,78.87
2019-04-07T09:35:07.669Z,78.87
2019-04-07T09:40:05.828Z,76.05
2019-04-07T09:45:09.810Z,76.05
2019-04-07T09:50:03.674Z,74.32
2019-04-07T09:55:01.719Z,74.32
2019-04-07T10:00:02.434Z,73.74
2019-04-07T10:05:01.454Z,73.74
2019-04-07T10:10:14.951Z,72.13
2019-04-07T10:15:02.589Z,72.13
2019-04-07T10:20:02.602Z,70.96
2019-04-07T10:25:02.583Z,70.96
2019-04-07T10:30:01.720Z,72.15
2019-04-07T10:35:02.846Z,72.15
2019-04-07T10:40:04.309Z,71.72
2019-04-07T10:45:01.555Z,71.72
2019-04-07T10:50:09.023Z,69.96
2019-04-07T10:55:01.471Z,69.96
2019-04-07T11:00:01.886Z,69.72
2019-04-07T11:05:03.117Z,69.72
2019-04-07T11:10:01.577Z,66.33
2019-04-07T11:15:02.450Z,66.33
2019-04-07T11:20:02.873Z,60.98
2019-04-07T11:25:03.334Z,60.98
2019-04-07T11:30:09.831Z,62.2
2019-04-07T11:40:02.503Z,61.16
2019-04-07T11:45:01.573Z,61.16
2019-04-07T11:50:02.162Z,60.77
2019-04-07T11:55:02.619Z,60.77
2019-04-07T12:00:02.771Z,57.96
2019-04-07T12:05:01.541Z,57.96
2019-04-07T12:10:01.370Z,60.83
2019-04-07T12:15:02.675Z,60.83
2019-04-07T12:20:01.606Z,59.89
2019-04-07T12:25:06.740Z,59.89
2019-04-07T12:30:02.715Z,60.65
2019-04-07T12:40:01.706Z,57.57
2019-04-07T12:45:02.266Z,57.57
2019-04-07T12:50:02.329Z,53.11
2019-04-07T12:55:02.065Z,53.11
2019-04-07T13:00:02.184Z,54.42
2019-04-07T13:05:08.678Z,54.42
2019-04-07T13:10:06.500Z,51.18
2019-04-07T13:15:03.639Z,51.18
2019-04-07T13:30:01.690Z,54.26
2019-04-07T13:45:05.035Z,53.08
2019-04-07T13:50:02.907Z,51.55
2019-04-07T13:55:08.812Z,51.55
2019-04-07T14:00:02.213Z,49.99
2019-04-07T14:05:11.302Z,49.99
2019-04-07T14:10:05.783Z,52.36
2019-04-07T14:15:01.557Z,52.36
2019-04-07T14:25:03.757Z,51.3
2019-04-07T14:30:03.091Z,51.61
2019-04-07T14:35:02.594Z,51.61
2019-04-07T14:45:01.894Z,51.32
2019-04-07T14:50:02.287Z,49.75
2019-04-07T15:00:03.686Z,50.28
2019-04-07T15:10:01.647Z,49.63
2019-04-07T15:15:12.079Z,49.63
2019-04-07T15:30:02.893Z,48.61
2019-04-07T15:45:02.925Z,46.61
2019-04-07T16:00:05.808Z,46.91
2019-04-07T16:15:02.592Z,45.36
2019-04-07T16:20:03.868Z,45.49
2019-04-07T16:25:02.312Z,45.49
2019-04-07T16:30:01.691Z,46.72
2019-04-07T16:35:02.264Z,46.72
2019-04-07T16:40:11.966Z,45.48
2019-04-07T16:45:02.557Z,45.48
2019-04-07T16:50:01.658Z,44.86
2019-04-07T16:55:02.756Z,44.86
2019-04-07T17:00:02.125Z,46.76
2019-04-07T17:05:02.179Z,46.76
2019-04-07T17:10:05.227Z,48.46
2019-04-07T17:15:08.806Z,48.46
2019-04-07T17:20:02.553Z,49.95
2019-04-07T17:25:12.345Z,49.95
2019-04-07T17:30:03.312Z,53.64
2019-04-07T17:35:02.687Z,53.64
2019-04-07T17:40:02.000Z,56.84
2019-04-07T17:45:01.982Z,56.84
2019-04-07T17:50:02.754Z,61.35
2019-04-07T17:55:04.418Z,61.35
2019-04-07T18:00:02.272Z,64.61
2019-04-07T18:05:01.821Z,64.61
2019-04-07T18:10:01.634Z,67.68
2019-04-07T18:15:11.791Z,67.68
2019-04-07T18:20:09.654Z,69.79
2019-04-07T18:25:07.177Z,69.79
2019-04-07T18:30:03.713Z,73.46
2019-04-07T18:35:02.852Z,73.46
2019-04-07T18:40:02.911Z,75.28
2019-04-07T18:45:02.261Z,75.28
2019-04-07T18:50:10.488Z,77.36
2019-04-07T18:55:11.037Z,77.36
2019-04-07T19:00:06.526Z,79.38
2019-04-07T19:05:02.424Z,79.38
2019-04-07T19:10:25.679Z,81.65
2019-04-07T19:15:12.151Z,81.65
2019-04-07T19:20:09.156Z,82.4
2019-04-07T19:26:01.477Z,82.4
2019-04-07T19:31:01.514Z,83.37
2019-04-07T19:36:01.611Z,83.37
2019-04-07T19:41:02.892Z,84.47
2019-04-07T19:51:01.604Z,85.86
2019-04-07T19:56:02.792Z,85.86
2019-04-07T20:11:01.745Z,86.7
2019-04-07T20:26:01.969Z,86.62
2019-04-07T20:31:05.950Z,86.97
2019-04-07T20:41:01.579Z,88.85
2019-04-07T20:56:01.736Z,88.29
2019-04-07T21:01:13.227Z,87.22
2019-04-07T21:06:02.415Z,87.22
2019-04-07T21:11:07.678Z,86.06
2019-04-07T21:21:01.756Z,84.44
2019-04-07T21:31:01.923Z,82.65
2019-04-07T21:41:02.263Z,81.71
2019-04-07T21:46:02.599Z,81.71
2019-04-07T21:56:02.014Z,82.05
2019-04-07T22:01:08.192Z,83.18
2019-04-07T22:11:01.862Z,84.75
2019-04-07T22:26:02.613Z,85.9
2019-04-07T22:41:02.641Z,86.52
2019-04-07T22:56:09.221Z,86.99
2019-04-07T23:11:02.540Z,86.24
2019-04-07T23:26:02.279Z,86.0
2019-04-07T23:41:03.690Z,85.67
2019-04-07T23:56:01.983Z,84.89
